sensor_id;sensor_type;location;lat;lon;timestamp;P1;durP1;ratioP1;P2;durP2;ratioP2
15281;SDS011;7742;44.320;19.820;2022-12-24T00:00:37;15.03;;;14.23;;
15281;SDS011;7742;44.320;19.820;2022-12-24T00:03:04;14.33;;;13.53;;
15281;SDS011;7742;44.320;19.820;2022-12-24T00:05:32;16.10;;;15.27;;
15281;SDS011;7742;44.320;19.820;2022-12-24T00:08:04;16.27;;;15.37;;
15281;SDS011;7742;44.320;19.820;2022-12-24T00:10:31;16.17;;;15.27;;
15281;SDS011;7742;44.320;19.820;2022-12-24T00:12:59;17.13;;;16.17;;
15281;SDS011;7742;44.320;19.820;2022-12-24T00:15:26;16.43;;;15.50;;
15281;SDS011;7742;44.320;19.820;2022-12-24T00:17:53;16.30;;;15.40;;
15281;SDS011;7742;44.320;19.820;2022-12-24T00:20:20;16.57;;;15.63;;
15281;SDS011;7742;44.320;19.820;2022-12-24T00:22:49;15.80;;;15.00;;
15281;SDS011;7742;44.320;19.820;2022-12-24T00:25:17;15.37;;;14.53;;
15281;SDS011;7742;44.320;19.820;2022-12-24T00:27:45;15.33;;;14.57;;
15281;SDS011;7742;44.320;19.820;2022-12-24T00:30:12;15.43;;;14.63;;
15281;SDS011;7742;44.320;19.820;2022-12-24T00:32:39;15.67;;;14.77;;
15281;SDS011;7742;44.320;19.820;2022-12-24T00:35:06;15.67;;;14.87;;
15281;SDS011;7742;44.320;19.820;2022-12-24T00:37:34;16.10;;;15.00;;
15281;SDS011;7742;44.320;19.820;2022-12-24T00:40:06;15.43;;;14.63;;
15281;SDS011;7742;44.320;19.820;2022-12-24T00:42:48;15.50;;;14.67;;
15281;SDS011;7742;44.320;19.820;2022-12-24T00:45:16;15.77;;;14.77;;
15281;SDS011;7742;44.320;19.820;2022-12-24T00:48:10;15.93;;;15.13;;
15281;SDS011;7742;44.320;19.820;2022-12-24T00:50:38;15.57;;;14.77;;
15281;SDS011;7742;44.320;19.820;2022-12-24T00:53:05;15.90;;;15.10;;
15281;SDS011;7742;44.320;19.820;2022-12-24T00:55:32;17.17;;;16.27;;
15281;SDS011;7742;44.320;19.820;2022-12-24T00:58:00;15.67;;;14.87;;
15281;SDS011;7742;44.320;19.820;2022-12-24T01:00:28;16.73;;;15.73;;
15281;SDS011;7742;44.320;19.820;2022-12-24T01:02:55;16.07;;;14.97;;
15281;SDS011;7742;44.320;19.820;2022-12-24T01:05:22;16.10;;;15.20;;
15281;SDS011;7742;44.320;19.820;2022-12-24T01:07:48;16.17;;;15.17;;
15281;SDS011;7742;44.320;19.820;2022-12-24T01:10:16;15.13;;;14.33;;
15281;SDS011;7742;44.320;19.820;2022-12-24T01:12:44;15.73;;;14.83;;
15281;SDS011;7742;44.320;19.820;2022-12-24T01:15:14;15.20;;;14.40;;
15281;SDS011;7742;44.320;19.820;2022-12-24T01:17:42;15.43;;;14.63;;
15281;SDS011;7742;44.320;19.820;2022-12-24T01:20:11;15.07;;;14.20;;
15281;SDS011;7742;44.320;19.820;2022-12-24T01:22:40;15.23;;;14.43;;
15281;SDS011;7742;44.320;19.820;2022-12-24T01:25:07;15.10;;;14.30;;
15281;SDS011;7742;44.320;19.820;2022-12-24T01:27:35;15.30;;;14.50;;
15281;SDS011;7742;44.320;19.820;2022-12-24T01:30:02;15.97;;;15.07;;
15281;SDS011;7742;44.320;19.820;2022-12-24T01:32:32;15.73;;;14.83;;
15281;SDS011;7742;44.320;19.820;2022-12-24T01:34:59;15.90;;;15.10;;
15281;SDS011;7742;44.320;19.820;2022-12-24T01:37:26;15.47;;;14.67;;
15281;SDS011;7742;44.320;19.820;2022-12-24T01:39:53;14.87;;;14.10;;
15281;SDS011;7742;44.320;19.820;2022-12-24T01:42:42;15.33;;;14.53;;
15281;SDS011;7742;44.320;19.820;2022-12-24T01:45:46;15.67;;;14.77;;
15281;SDS011;7742;44.320;19.820;2022-12-24T01:48:17;16.10;;;15.10;;
15281;SDS011;7742;44.320;19.820;2022-12-24T01:50:46;15.80;;;14.93;;
15281;SDS011;7742;44.320;19.820;2022-12-24T01:53:14;16.53;;;15.63;;
15281;SDS011;7742;44.320;19.820;2022-12-24T01:55:42;16.07;;;15.17;;
15281;SDS011;7742;44.320;19.820;2022-12-24T01:58:09;15.63;;;14.70;;
15281;SDS011;7742;44.320;19.820;2022-12-24T02:00:37;14.87;;;14.07;;
15281;SDS011;7742;44.320;19.820;2022-12-24T02:03:04;14.80;;;14.00;;
15281;SDS011;7742;44.320;19.820;2022-12-24T02:05:33;15.70;;;14.90;;
15281;SDS011;7742;44.320;19.820;2022-12-24T02:08:02;15.13;;;14.33;;
15281;SDS011;7742;44.320;19.820;2022-12-24T02:10:31;15.63;;;14.73;;
15281;SDS011;7742;44.320;19.820;2022-12-24T02:12:58;14.80;;;14.10;;
15281;SDS011;7742;44.320;19.820;2022-12-24T02:15:26;14.40;;;13.60;;
15281;SDS011;7742;44.320;19.820;2022-12-24T02:17:56;13.93;;;13.20;;
15281;SDS011;7742;44.320;19.820;2022-12-24T02:23:09;13.70;;;13.07;;
15281;SDS011;7742;44.320;19.820;2022-12-24T02:25:58;13.30;;;12.60;;
15281;SDS011;7742;44.320;19.820;2022-12-24T02:28:42;13.80;;;13.20;;
15281;SDS011;7742;44.320;19.820;2022-12-24T02:31:22;13.13;;;12.53;;
15281;SDS011;7742;44.320;19.820;2022-12-24T02:33:53;13.70;;;13.10;;
15281;SDS011;7742;44.320;19.820;2022-12-24T02:36:24;13.70;;;13.10;;
15281;SDS011;7742;44.320;19.820;2022-12-24T02:38:56;13.80;;;13.10;;
15281;SDS011;7742;44.320;19.820;2022-12-24T02:41:28;14.17;;;13.47;;
15281;SDS011;7742;44.320;19.820;2022-12-24T02:44:17;14.40;;;13.60;;
15281;SDS011;7742;44.320;19.820;2022-12-24T02:46:46;13.63;;;13.00;;
15281;SDS011;7742;44.320;19.820;2022-12-24T02:49:14;14.20;;;13.50;;
15281;SDS011;7742;44.320;19.820;2022-12-24T02:51:41;14.67;;;13.97;;
15281;SDS011;7742;44.320;19.820;2022-12-24T02:54:08;15.30;;;14.40;;
15281;SDS011;7742;44.320;19.820;2022-12-24T02:56:43;14.13;;;13.43;;
15281;SDS011;7742;44.320;19.820;2022-12-24T02:59:22;14.63;;;13.93;;
15281;SDS011;7742;44.320;19.820;2022-12-24T03:01:59;14.20;;;13.50;;
15281;SDS011;7742;44.320;19.820;2022-12-24T03:04:36;14.10;;;13.40;;
15281;SDS011;7742;44.320;19.820;2022-12-24T03:07:12;14.23;;;13.33;;
15281;SDS011;7742;44.320;19.820;2022-12-24T03:09:46;13.90;;;13.20;;
15281;SDS011;7742;44.320;19.820;2022-12-24T03:12:20;14.00;;;13.30;;
15281;SDS011;7742;44.320;19.820;2022-12-24T03:14:54;13.63;;;12.93;;
15281;SDS011;7742;44.320;19.820;2022-12-24T03:17:23;14.20;;;13.40;;
15281;SDS011;7742;44.320;19.820;2022-12-24T03:19:50;14.10;;;13.40;;
15281;SDS011;7742;44.320;19.820;2022-12-24T03:22:18;13.87;;;13.17;;
15281;SDS011;7742;44.320;19.820;2022-12-24T03:24:46;14.33;;;13.63;;
15281;SDS011;7742;44.320;19.820;2022-12-24T03:27:13;14.50;;;13.70;;
15281;SDS011;7742;44.320;19.820;2022-12-24T03:29:43;13.63;;;12.90;;
15281;SDS011;7742;44.320;19.820;2022-12-24T03:32:11;14.63;;;13.83;;
15281;SDS011;7742;44.320;19.820;2022-12-24T03:34:39;14.60;;;13.90;;
15281;SDS011;7742;44.320;19.820;2022-12-24T03:37:06;14.40;;;13.70;;
15281;SDS011;7742;44.320;19.820;2022-12-24T03:39:34;15.00;;;14.20;;
15281;SDS011;7742;44.320;19.820;2022-12-24T03:42:02;14.70;;;14.00;;
15281;SDS011;7742;44.320;19.820;2022-12-24T03:44:29;16.20;;;15.30;;
15281;SDS011;7742;44.320;19.820;2022-12-24T03:46:56;15.43;;;14.63;;
15281;SDS011;7742;44.320;19.820;2022-12-24T03:49:23;15.70;;;14.80;;
15281;SDS011;7742;44.320;19.820;2022-12-24T03:51:52;17.43;;;16.43;;
15281;SDS011;7742;44.320;19.820;2022-12-24T03:54:19;16.43;;;15.53;;
15281;SDS011;7742;44.320;19.820;2022-12-24T03:56:46;15.60;;;14.80;;
15281;SDS011;7742;44.320;19.820;2022-12-24T03:59:14;17.10;;;16.20;;
15281;SDS011;7742;44.320;19.820;2022-12-24T04:01:41;16.60;;;15.80;;
15281;SDS011;7742;44.320;19.820;2022-12-24T04:04:08;15.63;;;14.80;;
15281;SDS011;7742;44.320;19.820;2022-12-24T04:06:36;15.67;;;14.87;;
15281;SDS011;7742;44.320;19.820;2022-12-24T04:09:05;16.50;;;15.70;;
15281;SDS011;7742;44.320;19.820;2022-12-24T04:11:32;17.27;;;16.27;;
15281;SDS011;7742;44.320;19.820;2022-12-24T04:13:59;16.33;;;15.33;;
15281;SDS011;7742;44.320;19.820;2022-12-24T04:16:26;17.27;;;16.27;;
15281;SDS011;7742;44.320;19.820;2022-12-24T04:18:54;16.30;;;15.40;;
15281;SDS011;7742;44.320;19.820;2022-12-24T04:21:21;15.77;;;14.97;;
15281;SDS011;7742;44.320;19.820;2022-12-24T04:23:48;15.73;;;14.93;;
15281;SDS011;7742;44.320;19.820;2022-12-24T04:26:17;16.10;;;15.20;;
15281;SDS011;7742;44.320;19.820;2022-12-24T04:28:44;15.53;;;14.73;;
15281;SDS011;7742;44.320;19.820;2022-12-24T04:31:12;15.67;;;14.87;;
15281;SDS011;7742;44.320;19.820;2022-12-24T04:33:40;15.17;;;14.47;;
15281;SDS011;7742;44.320;19.820;2022-12-24T04:36:09;15.63;;;14.83;;
15281;SDS011;7742;44.320;19.820;2022-12-24T04:38:38;15.67;;;14.87;;
15281;SDS011;7742;44.320;19.820;2022-12-24T04:41:06;15.63;;;14.73;;
15281;SDS011;7742;44.320;19.820;2022-12-24T04:43:35;16.00;;;15.10;;
15281;SDS011;7742;44.320;19.820;2022-12-24T04:46:03;15.90;;;15.10;;
15281;SDS011;7742;44.320;19.820;2022-12-24T04:48:31;13.93;;;13.23;;
15281;SDS011;7742;44.320;19.820;2022-12-24T04:50:59;14.70;;;13.80;;
15281;SDS011;7742;44.320;19.820;2022-12-24T04:53:27;14.83;;;14.13;;
15281;SDS011;7742;44.320;19.820;2022-12-24T04:55:54;19.60;;;18.50;;
15281;SDS011;7742;44.320;19.820;2022-12-24T04:58:22;17.27;;;16.37;;
15281;SDS011;7742;44.320;19.820;2022-12-24T05:00:51;15.13;;;14.33;;
15281;SDS011;7742;44.320;19.820;2022-12-24T05:03:18;14.50;;;13.80;;
15281;SDS011;7742;44.320;19.820;2022-12-24T05:05:45;14.57;;;13.87;;
15281;SDS011;7742;44.320;19.820;2022-12-24T05:08:12;14.70;;;14.00;;
15281;SDS011;7742;44.320;19.820;2022-12-24T05:10:40;14.87;;;14.17;;
15281;SDS011;7742;44.320;19.820;2022-12-24T05:13:07;14.83;;;14.03;;
15281;SDS011;7742;44.320;19.820;2022-12-24T05:15:34;15.37;;;14.57;;
15281;SDS011;7742;44.320;19.820;2022-12-24T05:18:03;15.00;;;14.30;;
15281;SDS011;7742;44.320;19.820;2022-12-24T05:20:30;15.07;;;14.27;;
15281;SDS011;7742;44.320;19.820;2022-12-24T05:22:57;14.43;;;13.73;;
15281;SDS011;7742;44.320;19.820;2022-12-24T05:25:42;14.60;;;13.90;;
15281;SDS011;7742;44.320;19.820;2022-12-24T05:28:26;15.53;;;14.73;;
15281;SDS011;7742;44.320;19.820;2022-12-24T05:30:53;14.70;;;14.00;;
15281;SDS011;7742;44.320;19.820;2022-12-24T05:33:22;15.47;;;14.67;;
15281;SDS011;7742;44.320;19.820;2022-12-24T05:35:50;15.10;;;14.40;;
15281;SDS011;7742;44.320;19.820;2022-12-24T05:38:17;17.03;;;15.80;;
15281;SDS011;7742;44.320;19.820;2022-12-24T05:40:45;14.67;;;13.87;;
15281;SDS011;7742;44.320;19.820;2022-12-24T05:43:12;15.20;;;14.40;;
15281;SDS011;7742;44.320;19.820;2022-12-24T05:45:39;14.60;;;13.90;;
15281;SDS011;7742;44.320;19.820;2022-12-24T05:48:06;15.90;;;15.10;;
15281;SDS011;7742;44.320;19.820;2022-12-24T05:50:35;15.23;;;14.50;;
15281;SDS011;7742;44.320;19.820;2022-12-24T05:53:05;15.30;;;14.50;;
15281;SDS011;7742;44.320;19.820;2022-12-24T05:55:37;17.27;;;16.27;;
15281;SDS011;7742;44.320;19.820;2022-12-24T05:58:05;17.07;;;16.07;;
15281;SDS011;7742;44.320;19.820;2022-12-24T06:00:32;16.33;;;15.43;;
15281;SDS011;7742;44.320;19.820;2022-12-24T06:02:59;16.53;;;15.47;;
15281;SDS011;7742;44.320;19.820;2022-12-24T06:05:26;16.87;;;15.87;;
15281;SDS011;7742;44.320;19.820;2022-12-24T06:10:43;15.63;;;14.77;;
15281;SDS011;7742;44.320;19.820;2022-12-24T06:13:19;15.77;;;14.70;;
15281;SDS011;7742;44.320;19.820;2022-12-24T06:16:26;14.87;;;14.17;;
15281;SDS011;7742;44.320;19.820;2022-12-24T06:18:55;15.00;;;14.17;;
15281;SDS011;7742;44.320;19.820;2022-12-24T06:22:00;33.47;;;27.90;;
15281;SDS011;7742;44.320;19.820;2022-12-24T06:24:29;16.50;;;15.50;;
15281;SDS011;7742;44.320;19.820;2022-12-24T06:26:56;15.13;;;14.23;;
15281;SDS011;7742;44.320;19.820;2022-12-24T06:29:23;15.73;;;14.83;;
15281;SDS011;7742;44.320;19.820;2022-12-24T06:31:50;16.90;;;15.83;;
15281;SDS011;7742;44.320;19.820;2022-12-24T06:34:17;15.47;;;14.60;;
15281;SDS011;7742;44.320;19.820;2022-12-24T06:36:45;15.00;;;14.20;;
15281;SDS011;7742;44.320;19.820;2022-12-24T06:39:12;15.80;;;15.00;;
15281;SDS011;7742;44.320;19.820;2022-12-24T06:41:40;14.50;;;13.80;;
15281;SDS011;7742;44.320;19.820;2022-12-24T06:44:07;14.93;;;14.13;;
15281;SDS011;7742;44.320;19.820;2022-12-24T06:46:35;15.63;;;14.73;;
15281;SDS011;7742;44.320;19.820;2022-12-24T06:49:02;15.17;;;14.33;;
15281;SDS011;7742;44.320;19.820;2022-12-24T06:51:29;14.27;;;13.57;;
15281;SDS011;7742;44.320;19.820;2022-12-24T06:53:56;14.13;;;13.40;;
15281;SDS011;7742;44.320;19.820;2022-12-24T06:56:23;14.03;;;13.33;;
15281;SDS011;7742;44.320;19.820;2022-12-24T06:58:52;15.10;;;14.30;;
15281;SDS011;7742;44.320;19.820;2022-12-24T07:01:19;14.97;;;14.10;;
15281;SDS011;7742;44.320;19.820;2022-12-24T07:03:48;14.00;;;13.30;;
15281;SDS011;7742;44.320;19.820;2022-12-24T07:06:17;13.67;;;12.97;;
15281;SDS011;7742;44.320;19.820;2022-12-24T07:08:45;14.10;;;13.40;;
15281;SDS011;7742;44.320;19.820;2022-12-24T07:11:13;14.77;;;13.97;;
15281;SDS011;7742;44.320;19.820;2022-12-24T07:13:40;13.73;;;13.03;;
15281;SDS011;7742;44.320;19.820;2022-12-24T07:16:08;13.70;;;13.10;;
15281;SDS011;7742;44.320;19.820;2022-12-24T07:18:36;13.87;;;13.27;;
15281;SDS011;7742;44.320;19.820;2022-12-24T07:21:03;15.03;;;14.23;;
15281;SDS011;7742;44.320;19.820;2022-12-24T07:23:31;14.27;;;13.37;;
15281;SDS011;7742;44.320;19.820;2022-12-24T07:25:58;15.03;;;14.13;;
15281;SDS011;7742;44.320;19.820;2022-12-24T07:28:27;15.40;;;14.63;;
15281;SDS011;7742;44.320;19.820;2022-12-24T07:30:54;17.50;;;16.50;;
15281;SDS011;7742;44.320;19.820;2022-12-24T07:33:23;18.93;;;17.77;;
15281;SDS011;7742;44.320;19.820;2022-12-24T07:35:56;19.00;;;17.80;;
15281;SDS011;7742;44.320;19.820;2022-12-24T07:38:24;17.07;;;15.97;;
15281;SDS011;7742;44.320;19.820;2022-12-24T07:40:52;20.37;;;19.27;;
15281;SDS011;7742;44.320;19.820;2022-12-24T07:43:19;21.53;;;20.33;;
15281;SDS011;7742;44.320;19.820;2022-12-24T07:45:46;21.50;;;19.90;;
15281;SDS011;7742;44.320;19.820;2022-12-24T07:48:13;19.83;;;18.63;;
15281;SDS011;7742;44.320;19.820;2022-12-24T07:50:42;22.90;;;20.90;;
15281;SDS011;7742;44.320;19.820;2022-12-24T07:53:09;28.33;;;25.30;;
15281;SDS011;7742;44.320;19.820;2022-12-24T07:55:36;30.97;;;27.10;;
15281;SDS011;7742;44.320;19.820;2022-12-24T07:58:03;19.77;;;18.37;;
15281;SDS011;7742;44.320;19.820;2022-12-24T08:00:30;19.27;;;18.17;;
15281;SDS011;7742;44.320;19.820;2022-12-24T08:02:57;21.83;;;20.23;;
15281;SDS011;7742;44.320;19.820;2022-12-24T08:05:25;19.80;;;18.53;;
15281;SDS011;7742;44.320;19.820;2022-12-24T08:07:54;19.03;;;17.83;;
15281;SDS011;7742;44.320;19.820;2022-12-24T08:10:21;18.57;;;17.47;;
15281;SDS011;7742;44.320;19.820;2022-12-24T08:12:48;18.00;;;16.80;;
15281;SDS011;7742;44.320;19.820;2022-12-24T08:15:15;19.53;;;18.13;;
15281;SDS011;7742;44.320;19.820;2022-12-24T08:17:43;15.37;;;14.33;;
15281;SDS011;7742;44.320;19.820;2022-12-24T08:20:10;15.07;;;14.23;;
15281;SDS011;7742;44.320;19.820;2022-12-24T08:22:37;19.53;;;18.13;;
15281;SDS011;7742;44.320;19.820;2022-12-24T08:25:07;14.90;;;14.00;;
15281;SDS011;7742;44.320;19.820;2022-12-24T08:27:34;15.60;;;14.70;;
15281;SDS011;7742;44.320;19.820;2022-12-24T08:30:02;14.73;;;13.93;;
15281;SDS011;7742;44.320;19.820;2022-12-24T08:32:29;14.57;;;13.77;;
15281;SDS011;7742;44.320;19.820;2022-12-24T08:34:56;14.70;;;13.80;;
15281;SDS011;7742;44.320;19.820;2022-12-24T08:37:24;13.90;;;13.10;;
15281;SDS011;7742;44.320;19.820;2022-12-24T08:39:51;13.87;;;13.03;;
15281;SDS011;7742;44.320;19.820;2022-12-24T08:42:19;13.23;;;12.53;;
15281;SDS011;7742;44.320;19.820;2022-12-24T08:44:46;15.50;;;14.40;;
15281;SDS011;7742;44.320;19.820;2022-12-24T08:47:14;14.60;;;13.80;;
15281;SDS011;7742;44.320;19.820;2022-12-24T08:49:41;15.87;;;15.07;;
15281;SDS011;7742;44.320;19.820;2022-12-24T08:52:08;17.43;;;16.33;;
15281;SDS011;7742;44.320;19.820;2022-12-24T08:54:35;18.33;;;17.23;;
15281;SDS011;7742;44.320;19.820;2022-12-24T08:57:02;19.77;;;18.47;;
15281;SDS011;7742;44.320;19.820;2022-12-24T08:59:31;17.50;;;16.30;;
15281;SDS011;7742;44.320;19.820;2022-12-24T09:01:58;19.43;;;18.23;;
15281;SDS011;7742;44.320;19.820;2022-12-24T09:04:25;20.27;;;18.83;;
15281;SDS011;7742;44.320;19.820;2022-12-24T09:06:53;20.03;;;18.63;;
15281;SDS011;7742;44.320;19.820;2022-12-24T09:09:20;16.97;;;15.97;;
15281;SDS011;7742;44.320;19.820;2022-12-24T09:11:47;19.60;;;18.27;;
15281;SDS011;7742;44.320;19.820;2022-12-24T09:14:15;16.50;;;15.50;;
15281;SDS011;7742;44.320;19.820;2022-12-24T09:16:43;16.53;;;15.33;;
15281;SDS011;7742;44.320;19.820;2022-12-24T09:19:11;18.83;;;17.63;;
15281;SDS011;7742;44.320;19.820;2022-12-24T09:21:38;17.63;;;16.43;;
15281;SDS011;7742;44.320;19.820;2022-12-24T09:24:05;16.60;;;15.60;;
15281;SDS011;7742;44.320;19.820;2022-12-24T09:26:32;16.73;;;15.73;;
15281;SDS011;7742;44.320;19.820;2022-12-24T09:29:00;16.47;;;15.30;;
15281;SDS011;7742;44.320;19.820;2022-12-24T09:31:28;16.30;;;15.20;;
15281;SDS011;7742;44.320;19.820;2022-12-24T09:33:57;16.70;;;15.60;;
15281;SDS011;7742;44.320;19.820;2022-12-24T09:36:24;17.20;;;16.03;;
15281;SDS011;7742;44.320;19.820;2022-12-24T09:38:51;18.67;;;17.37;;
15281;SDS011;7742;44.320;19.820;2022-12-24T09:41:23;17.27;;;16.17;;
15281;SDS011;7742;44.320;19.820;2022-12-24T09:43:57;16.77;;;15.77;;
15281;SDS011;7742;44.320;19.820;2022-12-24T09:46:27;17.30;;;16.17;;
15281;SDS011;7742;44.320;19.820;2022-12-24T09:49:02;15.97;;;14.97;;
15281;SDS011;7742;44.320;19.820;2022-12-24T09:51:33;16.40;;;15.40;;
15281;SDS011;7742;44.320;19.820;2022-12-24T09:54:02;17.37;;;16.27;;
15281;SDS011;7742;44.320;19.820;2022-12-24T09:56:33;19.67;;;18.27;;
15281;SDS011;7742;44.320;19.820;2022-12-24T09:59:03;17.87;;;16.57;;
15281;SDS011;7742;44.320;19.820;2022-12-24T10:01:31;17.80;;;16.60;;
15281;SDS011;7742;44.320;19.820;2022-12-24T10:04:02;19.30;;;18.03;;
15281;SDS011;7742;44.320;19.820;2022-12-24T10:06:31;17.67;;;16.67;;
15281;SDS011;7742;44.320;19.820;2022-12-24T10:09:04;18.47;;;17.13;;
15281;SDS011;7742;44.320;19.820;2022-12-24T10:11:40;18.87;;;17.67;;
15281;SDS011;7742;44.320;19.820;2022-12-24T10:14:12;18.30;;;17.10;;
15281;SDS011;7742;44.320;19.820;2022-12-24T10:16:48;20.10;;;18.80;;
15281;SDS011;7742;44.320;19.820;2022-12-24T10:19:22;19.53;;;18.23;;
15281;SDS011;7742;44.320;19.820;2022-12-24T10:21:57;18.17;;;16.97;;
15281;SDS011;7742;44.320;19.820;2022-12-24T10:24:30;17.60;;;16.47;;
15281;SDS011;7742;44.320;19.820;2022-12-24T10:27:01;16.73;;;15.73;;
15281;SDS011;7742;44.320;19.820;2022-12-24T10:29:34;16.67;;;15.63;;
15281;SDS011;7742;44.320;19.820;2022-12-24T10:32:09;16.63;;;15.63;;
15281;SDS011;7742;44.320;19.820;2022-12-24T10:34:43;16.87;;;15.80;;
15281;SDS011;7742;44.320;19.820;2022-12-24T10:37:13;16.20;;;15.20;;
15281;SDS011;7742;44.320;19.820;2022-12-24T10:39:41;15.37;;;14.27;;
15281;SDS011;7742;44.320;19.820;2022-12-24T10:42:09;15.43;;;14.43;;
15281;SDS011;7742;44.320;19.820;2022-12-24T10:44:37;15.83;;;14.93;;
15281;SDS011;7742;44.320;19.820;2022-12-24T10:47:04;16.50;;;15.50;;
15281;SDS011;7742;44.320;19.820;2022-12-24T10:49:34;15.77;;;14.80;;
15281;SDS011;7742;44.320;19.820;2022-12-24T10:52:05;14.10;;;13.30;;
15281;SDS011;7742;44.320;19.820;2022-12-24T10:54:37;15.80;;;14.83;;
15281;SDS011;7742;44.320;19.820;2022-12-24T10:57:35;16.67;;;15.60;;
15281;SDS011;7742;44.320;19.820;2022-12-24T11:00:05;16.40;;;15.30;;
15281;SDS011;7742;44.320;19.820;2022-12-24T11:02:35;16.00;;;15.10;;
15281;SDS011;7742;44.320;19.820;2022-12-24T11:05:04;14.37;;;13.57;;
15281;SDS011;7742;44.320;19.820;2022-12-24T11:07:34;16.13;;;15.23;;
15281;SDS011;7742;44.320;19.820;2022-12-24T11:10:03;15.00;;;14.30;;
15281;SDS011;7742;44.320;19.820;2022-12-24T11:12:31;15.87;;;15.07;;
15281;SDS011;7742;44.320;19.820;2022-12-24T11:15:05;16.13;;;15.23;;
15281;SDS011;7742;44.320;19.820;2022-12-24T11:17:33;16.03;;;15.10;;
15281;SDS011;7742;44.320;19.820;2022-12-24T11:20:01;14.63;;;13.83;;
15281;SDS011;7742;44.320;19.820;2022-12-24T11:22:30;14.37;;;13.40;;
15281;SDS011;7742;44.320;19.820;2022-12-24T11:25:02;14.47;;;13.77;;
15281;SDS011;7742;44.320;19.820;2022-12-24T11:27:38;14.17;;;13.27;;
15281;SDS011;7742;44.320;19.820;2022-12-24T11:30:20;14.47;;;13.67;;
15281;SDS011;7742;44.320;19.820;2022-12-24T11:32:50;15.10;;;14.20;;
15281;SDS011;7742;44.320;19.820;2022-12-24T11:35:38;15.23;;;14.33;;
15281;SDS011;7742;44.320;19.820;2022-12-24T11:38:09;14.80;;;14.00;;
15281;SDS011;7742;44.320;19.820;2022-12-24T11:40:40;14.80;;;13.90;;
15281;SDS011;7742;44.320;19.820;2022-12-24T11:43:12;15.17;;;14.27;;
15281;SDS011;7742;44.320;19.820;2022-12-24T11:45:46;14.90;;;14.10;;
15281;SDS011;7742;44.320;19.820;2022-12-24T11:48:23;14.97;;;14.17;;
15281;SDS011;7742;44.320;19.820;2022-12-24T11:50:57;16.10;;;15.20;;
15281;SDS011;7742;44.320;19.820;2022-12-24T11:53:27;15.00;;;14.20;;
15281;SDS011;7742;44.320;19.820;2022-12-24T11:56:02;15.73;;;14.73;;
15281;SDS011;7742;44.320;19.820;2022-12-24T11:58:34;14.63;;;13.83;;
15281;SDS011;7742;44.320;19.820;2022-12-24T12:01:08;15.97;;;15.07;;
15281;SDS011;7742;44.320;19.820;2022-12-24T12:03:39;14.67;;;13.90;;
15281;SDS011;7742;44.320;19.820;2022-12-24T12:06:13;14.97;;;14.17;;
15281;SDS011;7742;44.320;19.820;2022-12-24T12:08:46;13.97;;;13.13;;
15281;SDS011;7742;44.320;19.820;2022-12-24T12:11:17;14.17;;;13.47;;
15281;SDS011;7742;44.320;19.820;2022-12-24T12:13:45;15.13;;;14.30;;
15281;SDS011;7742;44.320;19.820;2022-12-24T12:16:15;14.50;;;13.80;;
15281;SDS011;7742;44.320;19.820;2022-12-24T12:18:45;13.70;;;13.00;;
15281;SDS011;7742;44.320;19.820;2022-12-24T12:21:16;13.70;;;13.00;;
15281;SDS011;7742;44.320;19.820;2022-12-24T12:23:46;13.50;;;12.70;;
15281;SDS011;7742;44.320;19.820;2022-12-24T12:26:18;12.67;;;12.07;;
15281;SDS011;7742;44.320;19.820;2022-12-24T12:28:50;13.73;;;13.03;;
15281;SDS011;7742;44.320;19.820;2022-12-24T12:31:20;12.43;;;11.77;;
15281;SDS011;7742;44.320;19.820;2022-12-24T12:33:50;14.60;;;13.80;;
15281;SDS011;7742;44.320;19.820;2022-12-24T12:36:20;13.57;;;12.97;;
15281;SDS011;7742;44.320;19.820;2022-12-24T12:38:50;12.50;;;11.70;;
15281;SDS011;7742;44.320;19.820;2022-12-24T12:41:31;12.73;;;12.03;;
15281;SDS011;7742;44.320;19.820;2022-12-24T12:44:21;13.20;;;12.50;;
15281;SDS011;7742;44.320;19.820;2022-12-24T12:46:57;12.80;;;12.10;;
15281;SDS011;7742;44.320;19.820;2022-12-24T12:49:40;14.00;;;13.27;;
15281;SDS011;7742;44.320;19.820;2022-12-24T12:52:11;13.80;;;13.20;;
15281;SDS011;7742;44.320;19.820;2022-12-24T12:54:46;14.40;;;13.60;;
15281;SDS011;7742;44.320;19.820;2022-12-24T12:57:23;14.73;;;13.93;;
15281;SDS011;7742;44.320;19.820;2022-12-24T12:59:53;18.17;;;17.07;;
15281;SDS011;7742;44.320;19.820;2022-12-24T13:02:28;16.03;;;15.10;;
15281;SDS011;7742;44.320;19.820;2022-12-24T13:08:17;16.83;;;15.83;;
15281;SDS011;7742;44.320;19.820;2022-12-24T13:13:50;16.60;;;15.60;;
15281;SDS011;7742;44.320;19.820;2022-12-24T13:16:47;16.83;;;15.77;;
15281;SDS011;7742;44.320;19.820;2022-12-24T13:19:29;15.70;;;14.60;;
15281;SDS011;7742;44.320;19.820;2022-12-24T13:22:12;15.33;;;14.43;;
15281;SDS011;7742;44.320;19.820;2022-12-24T13:24:45;15.00;;;14.20;;
15281;SDS011;7742;44.320;19.820;2022-12-24T13:27:14;15.07;;;14.20;;
15281;SDS011;7742;44.320;19.820;2022-12-24T13:29:52;15.50;;;14.37;;
15281;SDS011;7742;44.320;19.820;2022-12-24T13:41:35;14.83;;;13.93;;
15281;SDS011;7742;44.320;19.820;2022-12-24T13:44:28;15.00;;;14.10;;
15281;SDS011;7742;44.320;19.820;2022-12-24T13:47:17;14.80;;;14.00;;
15281;SDS011;7742;44.320;19.820;2022-12-24T13:49:49;14.67;;;13.80;;
15281;SDS011;7742;44.320;19.820;2022-12-24T13:52:22;14.67;;;13.77;;
15281;SDS011;7742;44.320;19.820;2022-12-24T13:55:01;15.73;;;14.93;;
15281;SDS011;7742;44.320;19.820;2022-12-24T13:57:34;15.43;;;14.50;;
15281;SDS011;7742;44.320;19.820;2022-12-24T14:00:06;15.50;;;14.40;;
15281;SDS011;7742;44.320;19.820;2022-12-24T14:02:49;15.77;;;14.87;;
15281;SDS011;7742;44.320;19.820;2022-12-24T14:05:20;15.57;;;14.77;;
15281;SDS011;7742;44.320;19.820;2022-12-24T14:07:51;15.90;;;15.00;;
15281;SDS011;7742;44.320;19.820;2022-12-24T14:10:20;14.90;;;14.00;;
15281;SDS011;7742;44.320;19.820;2022-12-24T14:12:50;15.23;;;14.33;;
15281;SDS011;7742;44.320;19.820;2022-12-24T14:18:36;15.73;;;14.93;;
15281;SDS011;7742;44.320;19.820;2022-12-24T14:21:05;15.77;;;14.80;;
15281;SDS011;7742;44.320;19.820;2022-12-24T14:23:36;15.83;;;14.83;;
15281;SDS011;7742;44.320;19.820;2022-12-24T14:26:11;16.70;;;15.60;;
15281;SDS011;7742;44.320;19.820;2022-12-24T14:28:41;17.20;;;16.20;;
15281;SDS011;7742;44.320;19.820;2022-12-24T14:31:12;17.37;;;16.27;;
15281;SDS011;7742;44.320;19.820;2022-12-24T14:33:43;18.53;;;17.43;;
15281;SDS011;7742;44.320;19.820;2022-12-24T14:36:10;19.00;;;17.80;;
15281;SDS011;7742;44.320;19.820;2022-12-24T14:38:39;17.40;;;16.33;;
15281;SDS011;7742;44.320;19.820;2022-12-24T14:41:10;20.00;;;18.70;;
15281;SDS011;7742;44.320;19.820;2022-12-24T14:43:49;19.83;;;18.73;;
15281;SDS011;7742;44.320;19.820;2022-12-24T14:46:26;18.63;;;17.53;;
15281;SDS011;7742;44.320;19.820;2022-12-24T14:48:59;16.90;;;15.90;;
15281;SDS011;7742;44.320;19.820;2022-12-24T14:51:32;16.37;;;15.47;;
15281;SDS011;7742;44.320;19.820;2022-12-24T14:54:12;18.03;;;17.03;;
15281;SDS011;7742;44.320;19.820;2022-12-24T14:57:03;18.20;;;17.07;;
15281;SDS011;7742;44.320;19.820;2022-12-24T14:59:32;16.23;;;15.33;;
15281;SDS011;7742;44.320;19.820;2022-12-24T15:02:19;16.33;;;15.43;;
15281;SDS011;7742;44.320;19.820;2022-12-24T15:05:06;13.60;;;12.90;;